createdAt,value
2023-02-11T00:01:59.129Z,56.30
2023-02-11T00:07:12.632Z,55.07
2023-02-11T00:12:19.243Z,55.17
2023-02-11T00:22:56.436Z,45.00
2023-02-11T00:28:05.267Z,51.27
2023-02-11T00:33:12.829Z,55.37
2023-02-11T00:38:25.890Z,48.77
2023-02-11T00:43:34.367Z,53.00
2023-02-11T00:48:55.733Z,56.83
2023-02-11T00:54:05.300Z,48.60
2023-02-11T00:59:21.276Z,52.60
2023-02-11T01:04:28.360Z,53.70
2023-02-11T01:14:52.680Z,59.03
2023-02-11T01:19:57.158Z,46.53
2023-02-11T01:25:07.129Z,47.77
2023-02-11T01:30:22.701Z,50.03
2023-02-11T01:35:25.706Z,53.47
2023-02-11T01:40:39.989Z,48.70
2023-02-11T01:45:54.580Z,53.67
2023-02-11T01:51:28.037Z,52.63
2023-02-11T01:57:08.979Z,47.13
2023-02-11T02:02:19.849Z,53.47
2023-02-11T02:08:06.146Z,48.87
2023-02-11T02:13:16.202Z,50.27
2023-02-11T02:18:31.410Z,47.07
2023-02-11T02:24:01.002Z,51.07
2023-02-11T02:29:32.975Z,46.90
2023-02-11T02:35:02.164Z,45.17
2023-02-11T02:40:17.889Z,45.40
2023-02-11T02:45:29.701Z,41.70
2023-02-11T02:50:38.162Z,36.30
2023-02-11T02:56:13.008Z,38.60
2023-02-11T03:01:32.993Z,38.13
2023-02-11T03:06:59.674Z,34.00
2023-02-11T03:12:14.800Z,47.80
2023-02-11T03:17:46.139Z,40.30
2023-02-11T03:23:09.702Z,40.53
2023-02-11T03:34:32.168Z,37.33
2023-02-11T03:39:58.459Z,33.47
2023-02-11T03:45:15.662Z,36.37
2023-02-11T03:50:27.822Z,41.63
2023-02-11T03:55:45.004Z,31.03
2023-02-11T04:00:46.836Z,34.97
2023-02-11T04:05:55.616Z,33.60
2023-02-11T04:11:24.555Z,34.90
2023-02-11T04:16:40.592Z,33.60
2023-02-11T04:27:08.862Z,36.80
2023-02-11T04:32:16.729Z,35.50
2023-02-11T04:37:27.622Z,32.77
2023-02-11T04:42:37.889Z,35.40
2023-02-11T04:47:44.492Z,37.47
2023-02-11T04:52:57.716Z,44.13
2023-02-11T04:57:59.441Z,37.80
2023-02-11T05:03:14.994Z,36.53
2023-02-11T05:08:17.914Z,36.83
2023-02-11T05:13:22.142Z,37.43
2023-02-11T05:18:31.331Z,43.87
2023-02-11T05:23:42.124Z,40.67
2023-02-11T05:28:50.003Z,43.87
2023-02-11T05:34:17.428Z,41.73
2023-02-11T05:39:19.212Z,48.30
2023-02-11T05:45:00.519Z,44.40
2023-02-11T05:50:13.218Z,49.37
2023-02-11T05:55:43.668Z,45.23
2023-02-11T06:00:56.698Z,47.93
2023-02-11T06:06:07.604Z,53.07
2023-02-11T06:11:11.881Z,56.87
2023-02-11T06:16:24.703Z,56.80
2023-02-11T06:26:47.669Z,57.57
2023-02-11T06:32:39.479Z,53.40
2023-02-11T06:37:49.491Z,53.67
2023-02-11T06:42:51.240Z,54.50
2023-02-11T06:48:14.460Z,55.60
2023-02-11T06:53:26.971Z,54.77
2023-02-11T06:58:40.840Z,54.60
2023-02-11T07:04:00.002Z,55.07
2023-02-11T07:09:02.009Z,58.57
2023-02-11T07:14:09.040Z,58.30
2023-02-11T07:19:10.928Z,57.50
2023-02-11T07:24:13.434Z,59.53
2023-02-11T07:29:25.318Z,59.23
2023-02-11T07:34:34.056Z,61.03
2023-02-11T07:39:41.646Z,63.53
2023-02-11T07:44:43.655Z,58.67
2023-02-11T07:49:50.618Z,57.57
2023-02-11T08:00:10.794Z,69.87
2023-02-11T08:05:15.546Z,60.53
2023-02-11T08:10:20.088Z,61.43
2023-02-11T08:15:31.316Z,64.03
2023-02-11T08:20:57.210Z,70.73
2023-02-11T08:26:04.955Z,68.07
2023-02-11T08:31:27.058Z,73.87
2023-02-11T08:36:40.763Z,67.63
2023-02-11T08:41:50.677Z,72.03
2023-02-11T08:46:57.925Z,64.57
2023-02-11T08:52:10.797Z,71.47
2023-02-11T08:57:15.556Z,70.30
2023-02-11T09:02:47.745Z,70.80
2023-02-11T09:07:54.224Z,82.53
2023-02-11T09:13:03.258Z,70.70
2023-02-11T09:18:06.038Z,79.10
2023-02-11T09:23:10.918Z,74.53
2023-02-11T09:28:49.285Z,81.17
2023-02-11T09:33:57.651Z,80.37
2023-02-11T09:39:18.573Z,76.10
2023-02-11T09:44:52.521Z,76.30
2023-02-11T09:50:38.729Z,77.67
2023-02-11T09:55:49.876Z,75.10
2023-02-11T10:01:20.054Z,66.43
2023-02-11T10:07:17.095Z,78.63
2023-02-11T10:12:37.032Z,74.23
2023-02-11T10:18:13.175Z,65.60
2023-02-11T10:23:56.138Z,79.07
2023-02-11T10:35:30.758Z,63.13
2023-02-11T10:40:39.892Z,68.60
2023-02-11T10:46:18.418Z,69.70
2023-02-11T10:51:44.480Z,64.47
2023-02-11T10:57:24.514Z,65.47
2023-02-11T11:03:09.850Z,68.33
2023-02-11T11:08:19.203Z,82.27
2023-02-11T11:15:09.365Z,62.90
2023-02-11T11:32:15.317Z,60.43
2023-02-11T11:37:42.313Z,58.90
2023-02-11T11:43:03.885Z,52.10
2023-02-11T11:48:17.650Z,54.77
2023-02-11T11:53:42.096Z,60.43
2023-02-11T11:59:11.844Z,59.93
2023-02-11T12:11:08.812Z,51.90
2023-02-11T12:17:21.688Z,49.93
2023-02-11T12:22:44.309Z,49.90
2023-02-11T12:28:20.115Z,52.00
2023-02-11T12:34:54.695Z,50.17
2023-02-11T12:46:12.843Z,42.63
2023-02-11T12:57:12.889Z,46.53
2023-02-11T13:03:22.991Z,44.23
2023-02-11T13:09:33.896Z,46.27
2023-02-11T13:15:14.827Z,47.40
2023-02-11T13:20:57.382Z,43.77
2023-02-11T13:26:32.710Z,48.57
2023-02-11T13:31:56.841Z,57.97
2023-02-11T13:37:05.582Z,52.60
2023-02-11T13:49:20.506Z,43.77
2023-02-11T13:54:42.597Z,46.83
2023-02-11T14:06:21.453Z,38.93
2023-02-11T14:12:34.242Z,40.20
2023-02-11T14:17:54.348Z,39.87
2023-02-11T14:23:01.554Z,45.50
2023-02-11T14:34:42.107Z,42.13
2023-02-11T14:39:59.922Z,37.10
2023-02-11T14:45:25.815Z,33.63
2023-02-11T14:51:01.506Z,37.50
2023-02-11T15:02:08.722Z,37.83
2023-02-11T15:07:23.155Z,36.33
2023-02-11T15:12:41.462Z,41.57
2023-02-11T15:19:30.348Z,37.20
2023-02-11T15:23:45.082Z,36.47
2023-02-11T15:34:47.061Z,31.93
2023-02-11T15:39:54.571Z,40.70
2023-02-11T15:45:29.080Z,33.60
2023-02-11T15:50:39.706Z,36.43
2023-02-11T15:56:08.515Z,36.13
2023-02-11T16:01:33.525Z,30.77
2023-02-11T16:07:03.151Z,34.07
2023-02-11T16:12:48.429Z,34.57
2023-02-11T16:18:07.944Z,31.30
2023-02-11T16:23:57.043Z,34.63
2023-02-11T16:34:41.075Z,36.60
2023-02-11T16:39:54.422Z,36.70
2023-02-11T16:57:15.286Z,34.43
2023-02-11T17:02:42.788Z,34.80
2023-02-11T17:12:58.441Z,38.23
2023-02-11T17:18:09.584Z,36.30
2023-02-11T17:23:14.021Z,34.90
2023-02-11T17:28:24.918Z,37.90
2023-02-11T17:33:29.576Z,37.50
2023-02-11T17:38:41.387Z,36.73
2023-02-11T17:44:03.905Z,38.13
2023-02-11T17:49:24.901Z,41.93
2023-02-11T17:54:28.857Z,37.57
2023-02-11T17:59:45.580Z,38.07
2023-02-11T18:04:47.688Z,41.37
2023-02-11T18:09:57.666Z,39.03
2023-02-11T18:15:12.649Z,39.97
2023-02-11T18:20:37.137Z,37.77
2023-02-11T18:25:47.854Z,38.23
2023-02-11T18:31:03.798Z,39.53
2023-02-11T18:36:18.744Z,35.13
2023-02-11T18:41:34.058Z,32.50
2023-02-11T18:46:48.521Z,37.10
2023-02-11T18:52:21.269Z,38.50
2023-02-11T18:57:43.647Z,40.33
2023-02-11T19:02:48.605Z,31.53
2023-02-11T19:08:23.740Z,38.30
2023-02-11T19:13:37.276Z,40.90
2023-02-11T19:18:52.809Z,33.17
2023-02-11T19:29:34.632Z,37.93
2023-02-11T19:34:49.335Z,37.73
2023-02-11T19:39:56.663Z,38.33
2023-02-11T19:50:27.122Z,35.50
2023-02-11T19:55:37.291Z,38.40
2023-02-11T20:00:45.213Z,39.53
2023-02-11T20:05:56.920Z,37.53
2023-02-11T20:11:23.335Z,34.13
2023-02-11T20:16:48.671Z,43.27
2023-02-11T20:22:09.748Z,37.67
2023-02-11T20:27:38.268Z,36.20
2023-02-11T20:32:40.069Z,37.30
2023-02-11T20:38:08.709Z,37.97
2023-02-11T20:43:36.979Z,36.43
2023-02-11T20:49:10.538Z,37.10
2023-02-11T21:01:18.484Z,35.57
2023-02-11T21:06:45.095Z,35.13
2023-02-11T21:13:37.414Z,39.80
2023-02-11T21:18:42.890Z,40.67
2023-02-11T21:23:54.639Z,43.80
2023-02-11T21:28:59.908Z,37.67
2023-02-11T21:34:20.663Z,41.03
2023-02-11T21:39:28.069Z,40.40
2023-02-11T21:44:45.606Z,39.50
2023-02-11T21:49:47.638Z,38.90
2023-02-11T21:55:12.521Z,39.27
2023-02-11T22:00:26.385Z,39.30
2023-02-11T22:05:36.474Z,41.40
2023-02-11T22:10:48.250Z,39.67
2023-02-11T22:16:01.059Z,42.53
2023-02-11T22:21:11.316Z,45.17
2023-02-11T22:26:44.108Z,38.60
2023-02-11T22:31:54.370Z,39.87
2023-02-11T22:37:13.246Z,38.43
2023-02-11T22:42:21.151Z,41.70
2023-02-11T22:47:28.178Z,39.37
2023-02-11T22:52:53.520Z,44.27
2023-02-11T22:58:24.414Z,36.77
2023-02-11T23:09:00.228Z,38.60
2023-02-11T23:14:18.104Z,36.33
2023-02-11T23:19:28.402Z,36.27
2023-02-11T23:24:30.152Z,43.37
2023-02-11T23:29:48.901Z,38.80
2023-02-11T23:34:55.931Z,44.83
2023-02-11T23:40:09.009Z,37.23
2023-02-11T23:52:16.494Z,35.33
2023-02-11T23:57:18.848Z,38.57
